Colebrook, NH (03576)

10:52 AM EDT on August 30, 2015 (GMT -0400)
Diamond Pond | | Change Station
CLOSE
Current Station
Personal Weather Station
Location: Stewartstown, NH
Elevation: 2240 ft
Nearby Weather Stations

Elev 2240 ft 44.95 °N, 71.32 °W | Updated 1 minute ago

Mostly Cloudy
Mostly Cloudy
63.6 °F
Feels Like 63.6 °F
N
0.0
Wind Variable Wind from NNW
Gusts 8.0 mph

Today
High -- | Low -- °F
--% Chance of Precip.
Yesterday
High -- | Low -- °F
Precip. -- in
6:05 AM 7:27 PM
Full, 99% visible
Pressure 30.09 in
Visibility 10.0 miles
Clouds Clear
Dew Point 59 °F
Humidity 85%
Rainfall 0.01 in
Snow Depth Not available.
UV 5 out of 12
Pollen 8.50 out of 12
Air Quality Not available.
Flu Activity Not available.
METAR KBML 301352Z AUTO VRB06KT 10SM CLR 22/14 A3009 RMK AO2 SLP188 T02220139
Pressure 30.09 in
Visibility 10.0 miles
Clouds Clear
Dew Point 59 °F
Humidity 85%
Rainfall 0.01 in
Snow Depth Not available.
UV 5 out of 12
Pollen 8.50 out of 12
Air Quality Not available.
Flu Activity Not available.
METAR KBML 301352Z AUTO VRB06KT 10SM CLR 22/14 A3009 RMK AO2 SLP188 T02220139

10-Day Weather Forecast

×

Almanac

Astronomy

Aug. 30, 2015 Rise Set
Actual Time
Civil Twilight
Nautical Twilight
Astronomical Twilight
Moon
Length of Visible Light
Length of Day
Tomorrow will be .
, % of the Moon is Illuminated

Today's Extremes

State Highs State Lows

Community

WunderPhotos

Upload Photos

1,850,974 photos uploaded!

WunderBlogs® & News

Nearby

Air Quality

  Air Quality AQ Index Pollutant
Not available.

Snow Depth

Station Depth Elevation

Earthquake Activity

City Distance Mag. Time & Date
Minimum magnitude displayed is 2.5.

Coastal Water Temperatures

Place Temperature

Stations

Nearby Weather Stations

Station Location Temp. Windchill Dew Point Humidity Wind Precip. Elev Updated Type